Meadowview, Virginia
Current Conditions -  °F | °C
As of 1:35 AM on Friday 19 Dec 2014 (Local Time) from KVJI Reporting Station
Overcast Overcast  
Wind Chill: 34°   Ceiling: 4200
Heat Index: 39°   Visibility: 10mi
Dew Point: 26°   Wind: 7mph
Humidity: 58%   Direction: 340°NNW
Pressure: 30.11"   Gusts: NA
Location:  36.76°N, 81.86°W
Report Text: KVJI 190635Z AUTO 34006KT 10SM OVC042 04/M03 A3011 RMK AO2 T00401035
Loading
Personal Weather Stations






























Interactive Weather Map New forecast layout! Learn more

10-Day Weather Forecast

Advertisements
Track Severe Weather on mobile